createdAt,value
2023-09-12T00:00:54.682Z,66.09
2023-09-12T00:03:34.038Z,65.87
2023-09-12T00:06:03.158Z,66.21
2023-09-12T00:08:31.562Z,66.16
2023-09-12T00:11:13.565Z,66.20
2023-09-12T00:13:42.614Z,66.19
2023-09-12T00:16:12.251Z,66.19
2023-09-12T00:18:42.046Z,66.38
2023-09-12T00:21:10.722Z,67.14
2023-09-12T00:23:39.151Z,66.52
2023-09-12T00:26:07.546Z,66.74
2023-09-12T00:28:36.366Z,67.22
2023-09-12T00:31:04.500Z,67.33
2023-09-12T00:33:33.362Z,67.57
2023-09-12T00:36:01.538Z,66.46
2023-09-12T00:38:31.274Z,66.01
2023-09-12T00:40:59.659Z,65.44
2023-09-12T00:43:27.949Z,65.13
2023-09-12T00:45:56.662Z,64.95
2023-09-12T00:48:25.303Z,65.09
2023-09-12T00:50:54.513Z,65.19
2023-09-12T00:53:23.100Z,65.20
2023-09-12T00:55:57.673Z,65.07
2023-09-12T00:58:26.661Z,64.58
2023-09-12T01:00:55.315Z,65.25
2023-09-12T01:03:23.850Z,65.56
2023-09-12T01:05:52.962Z,66.42
2023-09-12T01:08:21.556Z,67.42
2023-09-12T01:10:51.063Z,67.55
2023-09-12T01:13:19.394Z,68.60
2023-09-12T01:15:47.925Z,68.75
2023-09-12T01:18:16.341Z,68.26
2023-09-12T01:21:00.799Z,67.66
2023-09-12T01:23:55.161Z,67.42
2023-09-12T01:26:59.105Z,67.24
2023-09-12T01:29:27.631Z,66.86
2023-09-12T01:31:56.655Z,66.68
2023-09-12T01:34:24.853Z,68.34
2023-09-12T01:36:52.911Z,68.30
2023-09-12T01:39:21.514Z,68.92
2023-09-12T01:41:51.293Z,67.93
2023-09-12T01:44:20.229Z,67.27
2023-09-12T01:46:51.223Z,67.02
2023-09-12T01:49:20.937Z,67.32
2023-09-12T01:51:49.531Z,66.58
2023-09-12T01:54:18.648Z,66.51
2023-09-12T01:56:47.314Z,67.05
2023-09-12T01:59:15.922Z,67.79
2023-09-12T02:01:44.527Z,68.02
2023-09-12T02:04:12.755Z,68.73
2023-09-12T02:06:41.154Z,68.45
2023-09-12T02:09:09.727Z,67.92
2023-09-12T02:11:38.201Z,67.49
2023-09-12T02:14:06.689Z,67.72
2023-09-12T02:16:38.985Z,67.20
2023-09-12T02:19:09.121Z,67.22
2023-09-12T02:21:37.751Z,67.36
2023-09-12T02:24:06.790Z,67.00
2023-09-12T02:26:37.604Z,67.53
2023-09-12T02:29:07.425Z,67.91
2023-09-12T02:31:35.809Z,67.91
2023-09-12T02:34:04.130Z,67.69
2023-09-12T02:36:32.901Z,67.99
2023-09-12T02:39:02.180Z,68.20
2023-09-12T02:41:30.843Z,68.33
2023-09-12T02:44:00.263Z,68.46
2023-09-12T02:46:28.755Z,67.83
2023-09-12T02:48:57.057Z,68.13
2023-09-12T02:51:26.879Z,68.23
2023-09-12T02:53:55.206Z,69.73
2023-09-12T02:56:23.995Z,70.72
2023-09-12T02:58:52.372Z,70.43
2023-09-12T03:01:21.756Z,70.23
2023-09-12T03:03:51.507Z,69.57
2023-09-12T03:06:19.973Z,69.23
2023-09-12T03:08:49.409Z,68.72
2023-09-12T03:11:17.858Z,69.31
2023-09-12T03:13:46.337Z,69.36
2023-09-12T03:16:15.341Z,69.55
2023-09-12T03:18:44.033Z,69.54
2023-09-12T03:21:12.647Z,69.56
2023-09-12T03:23:40.923Z,69.76
2023-09-12T03:26:09.178Z,69.93
2023-09-12T03:28:38.023Z,69.82
2023-09-12T03:31:13.781Z,70.05
2023-09-12T03:33:43.109Z,70.08
2023-09-12T03:36:11.457Z,70.19
2023-09-12T03:38:39.597Z,70.14
2023-09-12T03:41:08.353Z,68.22
2023-09-12T03:43:37.959Z,68.80
2023-09-12T03:46:06.556Z,69.92
2023-09-12T03:48:37.842Z,71.31
2023-09-12T03:51:06.911Z,71.65
2023-09-12T03:53:35.105Z,71.23
2023-09-12T03:56:03.392Z,71.45
2023-09-12T03:58:31.648Z,72.31
2023-09-12T04:01:00.259Z,72.10
2023-09-12T04:03:28.995Z,71.63
2023-09-12T04:05:57.576Z,72.17
2023-09-12T04:08:25.999Z,72.58
2023-09-12T04:10:54.330Z,73.11
2023-09-12T04:13:22.848Z,73.05
2023-09-12T04:15:51.419Z,72.25
2023-09-12T04:18:20.271Z,71.71
2023-09-12T04:20:48.878Z,71.80
2023-09-12T04:23:17.482Z,72.03
2023-09-12T04:25:47.562Z,72.63
2023-09-12T04:28:16.510Z,72.92
2023-09-12T04:30:47.314Z,71.18
2023-09-12T04:33:16.570Z,72.32
2023-09-12T04:35:45.020Z,72.82
2023-09-12T04:38:13.287Z,72.44
2023-09-12T04:40:41.757Z,72.61
2023-09-12T04:43:09.937Z,72.40
2023-09-12T04:45:38.592Z,73.13
2023-09-12T04:48:07.435Z,74.07
2023-09-12T04:50:41.421Z,74.35
2023-09-12T04:53:09.827Z,73.42
2023-09-12T04:55:38.962Z,73.27
2023-09-12T04:58:07.499Z,75.30
2023-09-12T05:00:35.620Z,74.78
2023-09-12T05:03:05.209Z,74.26
2023-09-12T05:05:36.265Z,75.99
2023-09-12T05:08:05.006Z,76.32
2023-09-12T05:10:33.636Z,75.72
2023-09-12T05:13:02.246Z,74.94
2023-09-12T05:15:30.572Z,74.10
2023-09-12T05:17:58.866Z,74.25
2023-09-12T05:20:26.993Z,73.59
2023-09-12T05:22:55.374Z,74.32
2023-09-12T05:25:23.756Z,73.39
2023-09-12T05:27:51.972Z,72.07
2023-09-12T05:30:20.270Z,71.97
2023-09-12T05:32:48.571Z,71.50
2023-09-12T05:35:22.000Z,70.94
2023-09-12T05:37:52.278Z,70.26
2023-09-12T05:40:20.653Z,69.60
2023-09-12T05:42:49.340Z,68.97
2023-09-12T05:45:17.816Z,68.23
2023-09-12T05:47:46.162Z,67.68
2023-09-12T05:50:14.524Z,67.23
2023-09-12T05:52:43.897Z,66.97
2023-09-12T05:55:13.815Z,65.84
2023-09-12T05:57:42.193Z,64.88
2023-09-12T06:00:13.168Z,63.49
2023-09-12T06:02:43.678Z,63.10
2023-09-12T06:05:12.086Z,61.92
2023-09-12T06:07:42.177Z,61.36
2023-09-12T06:10:10.999Z,61.77
2023-09-12T06:12:39.634Z,61.43
2023-09-12T06:15:08.432Z,59.95
2023-09-12T06:17:36.867Z,59.34
2023-09-12T06:20:07.970Z,58.43
2023-09-12T06:22:37.277Z,56.91
2023-09-12T06:25:07.271Z,56.36
2023-09-12T06:27:35.674Z,56.11
2023-09-12T06:30:04.381Z,53.74
2023-09-12T06:32:32.590Z,52.49
2023-09-12T06:35:00.860Z,51.56
2023-09-12T06:37:29.216Z,51.81
2023-09-12T06:39:57.716Z,50.19
2023-09-12T06:42:25.966Z,50.96
2023-09-12T06:44:54.754Z,51.01
2023-09-12T06:47:23.197Z,50.00
2023-09-12T06:49:55.338Z,49.14
2023-09-12T06:52:24.888Z,48.88
2023-09-12T06:54:53.313Z,47.64
2023-09-12T06:57:21.612Z,47.26
2023-09-12T06:59:50.656Z,47.28
2023-09-12T07:02:19.988Z,44.50
2023-09-12T07:04:48.254Z,45.89
2023-09-12T07:07:16.383Z,45.34
2023-09-12T07:09:44.693Z,45.20
2023-09-12T07:12:12.932Z,40.86
2023-09-12T07:14:41.077Z,39.85
2023-09-12T07:17:09.718Z,39.62
2023-09-12T07:19:38.033Z,40.91
2023-09-12T07:22:06.380Z,40.62
2023-09-12T07:24:34.596Z,40.29
2023-09-12T07:27:03.071Z,39.13
2023-09-12T07:29:31.452Z,37.14
2023-09-12T07:32:01.124Z,38.54
2023-09-12T07:34:29.746Z,38.99
2023-09-12T07:36:57.861Z,39.09
2023-09-12T07:39:26.342Z,39.05
2023-09-12T07:41:54.855Z,37.25
2023-09-12T07:44:23.070Z,36.74
2023-09-12T07:46:51.490Z,37.03
2023-09-12T07:49:19.932Z,36.21
2023-09-12T07:51:48.638Z,37.17
2023-09-12T07:54:19.264Z,37.22
2023-09-12T07:56:47.632Z,34.97
2023-09-12T07:59:16.155Z,35.82
2023-09-12T08:01:44.634Z,35.50
2023-09-12T08:04:13.233Z,33.24
2023-09-12T08:06:56.952Z,34.27
2023-09-12T08:09:46.652Z,33.17
2023-09-12T08:12:15.162Z,33.52
2023-09-12T08:14:43.679Z,32.96
2023-09-12T08:17:12.269Z,33.10
2023-09-12T08:19:40.673Z,31.77
2023-09-12T08:22:09.836Z,31.99
2023-09-12T08:24:38.648Z,32.68
2023-09-12T08:27:07.564Z,31.71
2023-09-12T08:29:36.163Z,31.23
2023-09-12T08:32:04.731Z,30.79
2023-09-12T08:34:34.199Z,31.35
2023-09-12T08:37:02.301Z,31.79
2023-09-12T08:39:40.955Z,31.71
2023-09-12T08:42:12.536Z,32.14
2023-09-12T08:44:41.970Z,29.88
2023-09-12T08:47:13.683Z,29.74
2023-09-12T08:49:43.819Z,28.66
2023-09-12T08:52:12.155Z,29.22
2023-09-12T08:54:40.714Z,30.21
2023-09-12T08:57:11.928Z,29.87
2023-09-12T08:59:40.441Z,29.82
2023-09-12T09:02:10.071Z,28.99
2023-09-12T09:04:40.654Z,29.54
2023-09-12T09:07:10.355Z,28.65
2023-09-12T09:09:38.951Z,29.27
2023-09-12T09:12:11.994Z,29.89
2023-09-12T09:14:40.819Z,27.77
2023-09-12T09:17:21.095Z,28.13
2023-09-12T09:19:57.641Z,27.38
2023-09-12T09:22:25.848Z,27.01
2023-09-12T09:25:10.510Z,26.70
2023-09-12T09:27:38.646Z,26.77
2023-09-12T09:30:06.997Z,26.33
2023-09-12T09:32:35.155Z,27.15
2023-09-12T09:35:03.398Z,26.05
2023-09-12T09:37:31.670Z,26.41
2023-09-12T09:39:59.782Z,26.35
2023-09-12T09:42:30.250Z,26.72
2023-09-12T09:44:58.722Z,26.82
2023-09-12T09:47:26.853Z,27.11
2023-09-12T09:49:58.796Z,27.33
2023-09-12T09:52:30.172Z,25.54
2023-09-12T09:54:58.612Z,26.28
2023-09-12T09:57:27.614Z,26.65
2023-09-12T09:59:56.043Z,25.88
2023-09-12T10:02:27.319Z,24.17
2023-09-12T10:07:29.067Z,24.92
2023-09-12T10:09:59.012Z,24.83
2023-09-12T10:12:30.264Z,25.44
2023-09-12T10:15:02.588Z,25.77
2023-09-12T10:17:37.746Z,24.87
2023-09-12T10:20:10.586Z,25.46
2023-09-12T10:22:41.894Z,24.44
2023-09-12T10:25:10.874Z,25.13
2023-09-12T10:27:39.039Z,24.99
2023-09-12T10:30:08.628Z,25.11
2023-09-12T10:32:37.898Z,25.30
2023-09-12T10:35:07.319Z,24.74
2023-09-12T10:37:37.194Z,26.07
2023-09-12T10:40:07.560Z,24.68
2023-09-12T10:42:38.318Z,24.54
2023-09-12T10:45:08.381Z,24.87
2023-09-12T10:47:37.521Z,23.70
2023-09-12T10:50:06.133Z,23.76
2023-09-12T10:52:36.885Z,23.23
2023-09-12T10:55:05.827Z,23.78
2023-09-12T10:57:34.180Z,23.61
2023-09-12T11:00:03.051Z,23.47
2023-09-12T11:02:33.257Z,23.96
2023-09-12T11:05:06.068Z,24.81
2023-09-12T11:07:37.070Z,23.41
2023-09-12T11:10:19.634Z,23.48
2023-09-12T11:12:50.269Z,23.31
2023-09-12T11:15:19.915Z,22.93
2023-09-12T11:17:49.100Z,24.14
2023-09-12T11:20:18.377Z,23.93
2023-09-12T11:22:47.420Z,23.04
2023-09-12T11:25:28.553Z,23.20
2023-09-12T11:27:56.849Z,22.65
2023-09-12T11:30:36.049Z,22.87
2023-09-12T11:33:05.919Z,23.28
2023-09-12T11:35:37.765Z,23.44
2023-09-12T11:38:10.816Z,22.78
2023-09-12T11:40:38.992Z,22.24
2023-09-12T11:43:07.497Z,21.36
2023-09-12T11:45:36.378Z,21.57
2023-09-12T11:48:04.848Z,21.29
2023-09-12T11:50:34.369Z,20.61
2023-09-12T11:53:04.717Z,20.34
2023-09-12T11:55:34.103Z,20.80
2023-09-12T11:58:02.469Z,21.57
2023-09-12T12:00:30.956Z,21.08
2023-09-12T12:02:59.676Z,20.51
2023-09-12T12:05:28.091Z,21.44
2023-09-12T12:08:07.038Z,21.30
2023-09-12T12:10:44.954Z,20.59
2023-09-12T12:13:13.758Z,20.66
2023-09-12T12:15:41.976Z,19.57
2023-09-12T12:18:10.459Z,19.85
2023-09-12T12:20:39.000Z,20.06
2023-09-12T12:23:07.378Z,19.44
2023-09-12T12:25:36.179Z,19.81
2023-09-12T12:28:05.014Z,19.66
2023-09-12T12:30:34.890Z,19.62
2023-09-12T12:33:56.929Z,18.84
2023-09-12T12:36:03.744Z,18.80
2023-09-12T12:38:37.512Z,18.22
2023-09-12T12:41:07.200Z,17.84
2023-09-12T12:43:35.376Z,17.98
2023-09-12T12:46:03.942Z,17.94
2023-09-12T12:48:33.361Z,17.77
2023-09-12T12:51:13.435Z,17.40
2023-09-12T12:53:52.044Z,17.50
2023-09-12T12:56:30.885Z,17.48
2023-09-12T12:59:04.498Z,17.66
2023-09-12T13:01:34.689Z,17.58
2023-09-12T13:04:03.499Z,17.30
2023-09-12T13:06:36.981Z,17.97
2023-09-12T13:09:07.038Z,18.15
2023-09-12T13:11:36.254Z,17.74
2023-09-12T13:14:11.204Z,17.79
2023-09-12T13:16:41.870Z,18.20
2023-09-12T13:19:12.349Z,17.58
2023-09-12T13:21:40.878Z,17.38
2023-09-12T13:24:09.374Z,17.27
2023-09-12T13:26:38.018Z,17.64
2023-09-12T13:29:06.538Z,17.17
2023-09-12T13:31:35.048Z,16.68
2023-09-12T13:34:04.342Z,16.42
2023-09-12T13:36:32.844Z,16.37
2023-09-12T13:39:01.274Z,15.86
2023-09-12T13:41:29.898Z,15.57
2023-09-12T13:43:58.181Z,15.25
2023-09-12T13:46:26.547Z,14.91
2023-09-12T13:48:54.872Z,14.62
2023-09-12T13:51:23.424Z,14.24
2023-09-12T13:53:51.985Z,13.77
2023-09-12T13:56:23.570Z,13.67
2023-09-12T13:58:52.084Z,13.72
2023-09-12T14:01:31.724Z,13.93
2023-09-12T14:04:04.346Z,14.20
2023-09-12T14:06:34.837Z,14.45
2023-09-12T14:09:03.377Z,14.69
2023-09-12T14:11:35.925Z,14.49
2023-09-12T14:16:36.848Z,14.40
2023-09-12T14:19:05.433Z,14.41
2023-09-12T14:21:35.867Z,13.82
2023-09-12T14:24:05.977Z,14.09
2023-09-12T14:26:34.932Z,14.12
2023-09-12T14:29:03.617Z,14.02
2023-09-12T14:31:32.204Z,13.74
2023-09-12T14:34:00.669Z,13.80
2023-09-12T14:36:29.016Z,13.84
2023-09-12T14:38:57.390Z,13.88
2023-09-12T14:41:25.790Z,14.02
2023-09-12T14:43:54.130Z,13.81
2023-09-12T14:46:22.631Z,13.75
2023-09-12T14:49:00.462Z,13.78
2023-09-12T14:51:33.439Z,13.59
2023-09-12T14:54:03.345Z,13.85
2023-09-12T14:56:32.639Z,13.85
2023-09-12T14:59:01.936Z,13.96
2023-09-12T15:01:30.624Z,14.03
2023-09-12T15:03:59.497Z,14.78
2023-09-12T15:06:28.508Z,14.97
2023-09-12T15:08:57.612Z,15.16
2023-09-12T15:11:25.848Z,15.31
2023-09-12T15:13:54.130Z,15.65
2023-09-12T15:16:22.657Z,15.72
2023-09-12T15:18:51.857Z,15.64
2023-09-12T15:21:20.194Z,15.64
2023-09-12T15:23:48.368Z,15.86
2023-09-12T15:26:17.213Z,15.97
2023-09-12T15:28:46.054Z,16.00
2023-09-12T15:31:14.646Z,16.13
2023-09-12T15:33:43.411Z,16.27
2023-09-12T15:36:11.966Z,16.60
2023-09-12T15:38:40.394Z,16.77
2023-09-12T15:41:09.236Z,17.08
2023-09-12T15:43:37.787Z,17.37
2023-09-12T15:46:06.273Z,17.61
2023-09-12T15:48:34.787Z,18.18
2023-09-12T15:51:05.598Z,18.88
2023-09-12T15:53:33.954Z,19.57
2023-09-12T15:56:02.332Z,20.15
2023-09-12T15:58:30.718Z,20.49
2023-09-12T16:01:01.091Z,21.25
2023-09-12T16:03:29.887Z,21.36
2023-09-12T16:05:58.418Z,22.02
2023-09-12T16:08:28.130Z,22.65
2023-09-12T16:10:56.473Z,23.18
2023-09-12T16:13:24.790Z,23.66
2023-09-12T16:15:53.229Z,24.57
2023-09-12T16:18:21.760Z,25.05
2023-09-12T16:20:50.177Z,25.59
2023-09-12T16:23:18.619Z,26.03
2023-09-12T16:25:47.553Z,26.32
2023-09-12T16:28:15.797Z,26.83
2023-09-12T16:30:45.767Z,27.43
2023-09-12T16:33:14.228Z,28.32
2023-09-12T16:35:42.772Z,28.31
2023-09-12T16:38:11.256Z,28.55
2023-09-12T16:40:40.257Z,29.26
2023-09-12T16:43:08.635Z,28.95
2023-09-12T16:45:37.839Z,29.41
2023-09-12T16:48:07.696Z,30.51
2023-09-12T16:50:36.022Z,31.02
2023-09-12T16:53:05.583Z,30.86
2023-09-12T16:55:34.018Z,30.91
2023-09-12T16:58:03.780Z,31.22
2023-09-12T17:00:32.154Z,31.77
2023-09-12T17:03:00.735Z,31.84
2023-09-12T17:05:29.482Z,31.45
2023-09-12T17:07:57.978Z,31.86
2023-09-12T17:10:26.551Z,32.33
2023-09-12T17:12:54.859Z,32.31
2023-09-12T17:15:23.821Z,32.76
2023-09-12T17:17:52.320Z,33.33
2023-09-12T17:20:20.836Z,33.40
2023-09-12T17:22:49.090Z,33.58
2023-09-12T17:25:17.661Z,33.89
2023-09-12T17:27:46.646Z,34.69
2023-09-12T17:30:15.025Z,34.41
2023-09-12T17:32:43.952Z,34.71
2023-09-12T17:35:12.403Z,35.18
2023-09-12T17:37:40.979Z,35.16
2023-09-12T17:40:09.839Z,34.86
2023-09-12T17:42:38.303Z,35.17
2023-09-12T17:45:07.149Z,36.05
2023-09-12T17:47:36.370Z,35.72
2023-09-12T17:50:05.139Z,35.86
2023-09-12T17:52:33.519Z,36.56
2023-09-12T17:55:02.055Z,37.89
2023-09-12T17:57:30.613Z,37.72
2023-09-12T17:59:59.073Z,37.78
2023-09-12T18:02:27.588Z,37.47
2023-09-12T18:04:56.070Z,38.87
2023-09-12T18:07:25.852Z,39.30
2023-09-12T18:09:54.355Z,38.95
2023-09-12T18:12:22.625Z,39.71
2023-09-12T18:14:50.787Z,40.37
2023-09-12T18:17:19.072Z,41.14
2023-09-12T18:19:47.447Z,40.97
2023-09-12T18:22:15.825Z,42.17
2023-09-12T18:24:44.229Z,42.26
2023-09-12T18:27:12.724Z,42.93
2023-09-12T18:29:41.172Z,42.59
2023-09-12T18:32:09.661Z,42.34
2023-09-12T18:34:38.039Z,43.90
2023-09-12T18:37:08.095Z,43.80
2023-09-12T18:39:36.771Z,44.90
2023-09-12T18:42:05.271Z,45.36
2023-09-12T18:44:35.039Z,45.33
2023-09-12T18:47:03.589Z,46.21
2023-09-12T18:49:32.119Z,46.82
2023-09-12T18:52:00.676Z,48.71
2023-09-12T18:54:30.038Z,48.99
2023-09-12T18:56:59.710Z,48.83
2023-09-12T18:59:27.981Z,49.28
2023-09-12T19:01:56.252Z,50.61
2023-09-12T19:04:25.648Z,50.37
2023-09-12T19:06:54.348Z,50.28
2023-09-12T19:09:23.349Z,50.09
2023-09-12T19:11:52.663Z,49.58
2023-09-12T19:14:21.031Z,49.64
2023-09-12T19:16:54.634Z,49.67
2023-09-12T19:19:23.229Z,51.00
2023-09-12T19:21:52.128Z,50.93
2023-09-12T19:24:20.493Z,51.73
2023-09-12T19:26:48.922Z,51.79
2023-09-12T19:29:18.186Z,51.05
2023-09-12T19:31:46.601Z,52.14
2023-09-12T19:34:15.213Z,51.58
2023-09-12T19:36:43.867Z,52.71
2023-09-12T19:39:12.614Z,52.99
2023-09-12T19:41:40.992Z,53.43
2023-09-12T19:44:09.324Z,54.17
2023-09-12T19:46:41.263Z,52.24
2023-09-12T19:49:10.360Z,53.32
2023-09-12T19:51:38.726Z,53.54
2023-09-12T19:54:07.850Z,54.42
2023-09-12T19:56:36.091Z,54.70
2023-09-12T19:59:04.687Z,54.45
2023-09-12T20:01:32.975Z,54.89
2023-09-12T20:04:01.999Z,54.80
2023-09-12T20:06:30.610Z,54.96
2023-09-12T20:08:59.419Z,55.45
2023-09-12T20:11:27.802Z,55.57
2023-09-12T20:13:56.182Z,55.24
2023-09-12T20:16:24.500Z,55.29
2023-09-12T20:18:53.076Z,55.37
2023-09-12T20:21:22.141Z,55.68
2023-09-12T20:23:50.573Z,55.87
2023-09-12T20:26:19.133Z,56.60
2023-09-12T20:28:47.493Z,56.08
2023-09-12T20:31:15.833Z,57.03
2023-09-12T20:33:45.900Z,57.78
2023-09-12T20:36:14.676Z,57.12
2023-09-12T20:38:47.071Z,57.08
2023-09-12T20:41:15.377Z,57.38
2023-09-12T20:43:44.136Z,57.25
2023-09-12T20:46:12.681Z,57.55
2023-09-12T20:48:41.203Z,57.37
2023-09-12T20:51:10.819Z,57.41
2023-09-12T20:53:39.418Z,58.18
2023-09-12T20:56:07.964Z,58.30
2023-09-12T20:58:37.571Z,58.87
2023-09-12T21:01:06.639Z,58.73
2023-09-12T21:03:35.110Z,60.39
2023-09-12T21:06:03.842Z,59.33
2023-09-12T21:08:32.844Z,59.41
2023-09-12T21:11:01.224Z,59.60
2023-09-12T21:13:29.700Z,60.35
2023-09-12T21:15:58.460Z,60.29
2023-09-12T21:18:26.911Z,60.72
2023-09-12T21:20:55.354Z,61.35
2023-09-12T21:23:23.939Z,61.03
2023-09-12T21:25:52.261Z,60.75
2023-09-12T21:28:20.692Z,60.50
2023-09-12T21:30:49.892Z,60.99
2023-09-12T21:33:18.723Z,61.06
2023-09-12T21:35:46.862Z,62.42
2023-09-12T21:38:15.188Z,62.89
2023-09-12T21:40:43.301Z,62.69
2023-09-12T21:43:11.575Z,63.40
2023-09-12T21:45:39.810Z,63.59
2023-09-12T21:48:08.098Z,63.06
2023-09-12T21:50:37.627Z,62.55
2023-09-12T21:53:05.934Z,63.21
2023-09-12T21:55:36.917Z,64.58
2023-09-12T21:58:05.821Z,64.39
2023-09-12T22:00:35.993Z,64.08
2023-09-12T22:03:05.493Z,63.23
2023-09-12T22:05:36.557Z,63.99
2023-09-12T22:08:06.550Z,63.79
2023-09-12T22:10:37.992Z,62.78
2023-09-12T22:13:06.872Z,63.22
2023-09-12T22:15:35.219Z,63.85
2023-09-12T22:18:03.837Z,64.70
2023-09-12T22:20:32.660Z,64.49
2023-09-12T22:23:01.020Z,64.20
2023-09-12T22:25:29.386Z,63.76
2023-09-12T22:27:57.650Z,63.26
2023-09-12T22:30:25.853Z,63.84
2023-09-12T22:32:54.359Z,63.84
2023-09-12T22:35:22.487Z,64.06
2023-09-12T22:37:50.590Z,64.41
2023-09-12T22:40:18.739Z,64.24
2023-09-12T22:42:46.861Z,63.97
2023-09-12T22:45:14.976Z,63.18
2023-09-12T22:47:43.277Z,63.24
2023-09-12T22:50:11.696Z,63.46
2023-09-12T22:52:40.074Z,63.56
2023-09-12T22:55:08.607Z,63.30
2023-09-12T22:57:37.976Z,63.84
2023-09-12T23:00:08.758Z,63.97
2023-09-12T23:02:37.582Z,63.70
2023-09-12T23:05:06.429Z,64.01
2023-09-12T23:07:35.666Z,64.50
2023-09-12T23:10:05.188Z,64.75
2023-09-12T23:12:35.140Z,65.30
2023-09-12T23:15:07.900Z,65.16
2023-09-12T23:17:37.059Z,65.52
2023-09-12T23:20:13.250Z,65.75
2023-09-12T23:22:47.871Z,65.26
2023-09-12T23:25:17.407Z,65.95
2023-09-12T23:27:46.262Z,65.76
2023-09-12T23:30:14.850Z,66.63
2023-09-12T23:32:43.486Z,66.44
2023-09-12T23:35:11.833Z,66.43
2023-09-12T23:37:40.398Z,66.38
2023-09-12T23:40:09.133Z,66.47
2023-09-12T23:42:38.106Z,67.50
2023-09-12T23:45:06.714Z,67.21
2023-09-12T23:47:35.212Z,67.31
2023-09-12T23:50:04.037Z,66.93
2023-09-12T23:52:32.429Z,66.60
2023-09-12T23:55:00.626Z,66.94
2023-09-12T23:57:28.872Z,66.44
2023-09-12T23:59:57.078Z,65.78
